sensor_id;sensor_type;location;lat;lon;timestamp;pressure;altitude;pressure_sealevel;temperature;humidity
4392;BME280;2210;51.938;8.488;2023-03-21T00:00:57;100634.09;;;8.71;100.00
4392;BME280;2210;51.938;8.488;2023-03-21T00:04:57;100633.88;;;8.72;100.00
4392;BME280;2210;51.938;8.488;2023-03-21T00:08:58;100625.16;;;8.75;100.00
4392;BME280;2210;51.938;8.488;2023-03-21T00:12:58;100624.13;;;8.76;100.00
4392;BME280;2210;51.938;8.488;2023-03-21T00:16:58;100618.38;;;8.78;100.00
4392;BME280;2210;51.938;8.488;2023-03-21T00:21:03;100619.44;;;8.77;100.00
4392;BME280;2210;51.938;8.488;2023-03-21T00:25:03;100613.28;;;8.82;100.00
4392;BME280;2210;51.938;8.488;2023-03-21T00:29:04;100618.34;;;8.85;100.00
4392;BME280;2210;51.938;8.488;2023-03-21T00:33:04;100611.16;;;8.84;100.00
4392;BME280;2210;51.938;8.488;2023-03-21T00:37:04;100612.84;;;8.85;100.00
4392;BME280;2210;51.938;8.488;2023-03-21T00:41:09;100608.22;;;8.78;100.00
4392;BME280;2210;51.938;8.488;2023-03-21T00:45:10;100610.38;;;8.76;100.00
4392;BME280;2210;51.938;8.488;2023-03-21T00:49:10;100602.28;;;8.82;100.00
4392;BME280;2210;51.938;8.488;2023-03-21T00:53:10;100600.22;;;8.77;100.00
4392;BME280;2210;51.938;8.488;2023-03-21T00:57:11;100593.88;;;8.76;100.00
4392;BME280;2210;51.938;8.488;2023-03-21T01:01:12;100594.94;;;8.75;100.00
4392;BME280;2210;51.938;8.488;2023-03-21T01:05:12;100592.38;;;8.81;100.00
4392;BME280;2210;51.938;8.488;2023-03-21T01:09:32;100589.16;;;8.84;100.00
4392;BME280;2210;51.938;8.488;2023-03-21T01:13:33;100586.00;;;8.80;100.00
4392;BME280;2210;51.938;8.488;2023-03-21T01:17:33;100581.59;;;8.79;100.00
4392;BME280;2210;51.938;8.488;2023-03-21T01:21:34;100577.97;;;8.78;100.00
4392;BME280;2210;51.938;8.488;2023-03-21T01:25:34;100569.75;;;8.78;100.00
4392;BME280;2210;51.938;8.488;2023-03-21T01:29:35;100567.84;;;8.79;100.00
4392;BME280;2210;51.938;8.488;2023-03-21T01:33:35;100576.09;;;8.79;100.00
4392;BME280;2210;51.938;8.488;2023-03-21T01:37:35;100572.66;;;8.84;100.00
4392;BME280;2210;51.938;8.488;2023-03-21T01:41:39;100565.69;;;8.81;100.00
4392;BME280;2210;51.938;8.488;2023-03-21T01:50:01;100569.91;;;8.84;100.00
4392;BME280;2210;51.938;8.488;2023-03-21T01:54:04;100565.47;;;8.83;100.00
4392;BME280;2210;51.938;8.488;2023-03-21T01:58:09;100558.69;;;8.85;100.00
4392;BME280;2210;51.938;8.488;2023-03-21T02:02:14;100559.31;;;8.87;100.00
4392;BME280;2210;51.938;8.488;2023-03-21T02:06:23;100558.47;;;8.87;100.00
4392;BME280;2210;51.938;8.488;2023-03-21T02:10:25;100549.38;;;8.86;100.00
4392;BME280;2210;51.938;8.488;2023-03-21T02:14:29;100548.53;;;8.86;100.00
4392;BME280;2210;51.938;8.488;2023-03-21T02:27:14;100524.81;;;8.91;100.00
4392;BME280;2210;51.938;8.488;2023-03-21T02:31:35;100516.78;;;8.90;100.00
4392;BME280;2210;51.938;8.488;2023-03-21T02:36:15;100524.41;;;8.88;100.00
4392;BME280;2210;51.938;8.488;2023-03-21T02:40:23;100518.44;;;8.91;100.00
4392;BME280;2210;51.938;8.488;2023-03-21T02:44:48;100530.53;;;8.90;100.00
4392;BME280;2210;51.938;8.488;2023-03-21T02:49:10;100529.66;;;8.89;100.00
4392;BME280;2210;51.938;8.488;2023-03-21T02:53:15;100511.72;;;8.87;100.00
4392;BME280;2210;51.938;8.488;2023-03-21T02:57:18;100518.44;;;8.91;100.00
4392;BME280;2210;51.938;8.488;2023-03-21T03:01:19;100515.09;;;8.89;100.00
4392;BME280;2210;51.938;8.488;2023-03-21T03:05:22;100512.56;;;8.87;100.00
4392;BME280;2210;51.938;8.488;2023-03-21T03:09:58;100513.81;;;8.91;100.00
4392;BME280;2210;51.938;8.488;2023-03-21T03:18:28;100494.25;;;9.00;100.00
4392;BME280;2210;51.938;8.488;2023-03-21T03:27:05;100496.72;;;9.08;100.00
4392;BME280;2210;51.938;8.488;2023-03-21T03:31:07;100496.25;;;9.11;100.00
4392;BME280;2210;51.938;8.488;2023-03-21T03:35:14;100495.78;;;9.14;100.00
4392;BME280;2210;51.938;8.488;2023-03-21T03:39:17;100495.41;;;9.10;100.00
4392;BME280;2210;51.938;8.488;2023-03-21T03:43:21;100493.09;;;9.07;100.00
4392;BME280;2210;51.938;8.488;2023-03-21T03:47:26;100492.03;;;9.08;100.00
4392;BME280;2210;51.938;8.488;2023-03-21T03:51:49;100494.03;;;9.01;100.00
4392;BME280;2210;51.938;8.488;2023-03-21T03:55:52;100495.84;;;9.07;100.00
4392;BME280;2210;51.938;8.488;2023-03-21T03:59:54;100491.13;;;8.96;100.00
4392;BME280;2210;51.938;8.488;2023-03-21T04:03:54;100479.13;;;8.90;100.00
4392;BME280;2210;51.938;8.488;2023-03-21T04:07:54;100482.56;;;9.04;100.00
4392;BME280;2210;51.938;8.488;2023-03-21T04:11:56;100480.19;;;9.08;100.00
4392;BME280;2210;51.938;8.488;2023-03-21T04:15:56;100476.13;;;8.92;100.00
4392;BME280;2210;51.938;8.488;2023-03-21T04:19:57;100482.09;;;8.89;100.00
4392;BME280;2210;51.938;8.488;2023-03-21T04:23:57;100474.44;;;8.91;100.00
4392;BME280;2210;51.938;8.488;2023-03-21T04:27:58;100476.78;;;8.94;100.00
4392;BME280;2210;51.938;8.488;2023-03-21T04:31:58;100467.00;;;8.98;100.00
4392;BME280;2210;51.938;8.488;2023-03-21T04:36:00;100466.53;;;9.01;100.00
4392;BME280;2210;51.938;8.488;2023-03-21T04:40:02;100459.66;;;9.10;100.00
4392;BME280;2210;51.938;8.488;2023-03-21T04:44:06;100461.53;;;9.10;100.00
4392;BME280;2210;51.938;8.488;2023-03-21T04:48:06;100460.88;;;9.15;100.00
4392;BME280;2210;51.938;8.488;2023-03-21T04:52:07;100450.94;;;9.14;100.00
4392;BME280;2210;51.938;8.488;2023-03-21T04:56:07;100450.94;;;9.14;100.00
4392;BME280;2210;51.938;8.488;2023-03-21T05:00:11;100456.19;;;9.15;100.00
4392;BME280;2210;51.938;8.488;2023-03-21T05:04:15;100452.47;;;9.09;100.00
4392;BME280;2210;51.938;8.488;2023-03-21T05:08:18;100454.00;;;9.05;100.00
4392;BME280;2210;51.938;8.488;2023-03-21T05:12:18;100447.59;;;9.11;100.00
4392;BME280;2210;51.938;8.488;2023-03-21T05:16:19;100449.72;;;9.09;100.00
4392;BME280;2210;51.938;8.488;2023-03-21T05:20:24;100446.34;;;9.07;100.00
4392;BME280;2210;51.938;8.488;2023-03-21T05:24:24;100448.50;;;9.05;100.00
4392;BME280;2210;51.938;8.488;2023-03-21T05:28:25;100443.59;;;9.07;100.00
4392;BME280;2210;51.938;8.488;2023-03-21T05:32:30;100451.75;;;9.14;100.00
4392;BME280;2210;51.938;8.488;2023-03-21T05:36:30;100450.09;;;9.13;100.00
4392;BME280;2210;51.938;8.488;2023-03-21T05:40:33;100454.16;;;9.10;100.00
4392;BME280;2210;51.938;8.488;2023-03-21T05:44:33;100436.59;;;9.11;100.00
4392;BME280;2210;51.938;8.488;2023-03-21T05:48:34;100445.44;;;9.14;100.00
4392;BME280;2210;51.938;8.488;2023-03-21T05:52:34;100447.13;;;9.15;100.00
4392;BME280;2210;51.938;8.488;2023-03-21T05:56:34;100433.53;;;9.20;100.00
4392;BME280;2210;51.938;8.488;2023-03-21T06:00:35;100443.00;;;9.24;100.00
4392;BME280;2210;51.938;8.488;2023-03-21T06:04:35;100440.16;;;9.31;100.00
4392;BME280;2210;51.938;8.488;2023-03-21T06:08:35;100447.09;;;9.33;100.00
4392;BME280;2210;51.938;8.488;2023-03-21T06:12:36;100439.69;;;9.34;100.00
4392;BME280;2210;51.938;8.488;2023-03-21T06:16:36;100439.69;;;9.34;100.00
4392;BME280;2210;51.938;8.488;2023-03-21T06:20:36;100443.50;;;9.33;100.00
4392;BME280;2210;51.938;8.488;2023-03-21T06:24:40;100443.03;;;9.36;100.00
4392;BME280;2210;51.938;8.488;2023-03-21T06:28:40;100444.25;;;9.40;100.00
4392;BME280;2210;51.938;8.488;2023-03-21T06:32:40;100448.47;;;9.42;100.00
4392;BME280;2210;51.938;8.488;2023-03-21T06:36:41;100440.19;;;9.42;100.00
4392;BME280;2210;51.938;8.488;2023-03-21T06:40:47;100443.34;;;9.46;100.00
4392;BME280;2210;51.938;8.488;2023-03-21T06:44:53;100450.06;;;9.50;100.00
4392;BME280;2210;51.938;8.488;2023-03-21T06:48:57;100451.75;;;9.51;100.00
4392;BME280;2210;51.938;8.488;2023-03-21T06:52:57;100447.69;;;9.54;100.00
4392;BME280;2210;51.938;8.488;2023-03-21T06:56:58;100452.88;;;9.62;100.00
4392;BME280;2210;51.938;8.488;2023-03-21T07:01:02;100454.91;;;9.67;100.00
4392;BME280;2210;51.938;8.488;2023-03-21T07:05:03;100452.53;;;9.70;100.00
4392;BME280;2210;51.938;8.488;2023-03-21T07:09:04;100452.31;;;9.72;100.00
4392;BME280;2210;51.938;8.488;2023-03-21T07:13:08;100441.66;;;9.75;100.00
4392;BME280;2210;51.938;8.488;2023-03-21T07:17:14;100450.53;;;9.77;100.00
4392;BME280;2210;51.938;8.488;2023-03-21T07:21:18;100453.41;;;9.83;100.00
4392;BME280;2210;51.938;8.488;2023-03-21T07:25:18;100455.22;;;9.89;100.00
4392;BME280;2210;51.938;8.488;2023-03-21T07:29:25;100457.53;;;9.92;100.00
4392;BME280;2210;51.938;8.488;2023-03-21T07:33:25;100455.50;;;9.99;100.00
4392;BME280;2210;51.938;8.488;2023-03-21T07:37:26;100449.75;;;10.01;100.00
4392;BME280;2210;51.938;8.488;2023-03-21T07:41:35;100451.44;;;10.02;100.00
4392;BME280;2210;51.938;8.488;2023-03-21T07:45:35;100451.91;;;9.99;100.00
4392;BME280;2210;51.938;8.488;2023-03-21T07:49:36;100458.09;;;9.94;100.00
4392;BME280;2210;51.938;8.488;2023-03-21T07:53:39;100457.03;;;9.95;100.00
4392;BME280;2210;51.938;8.488;2023-03-21T07:57:50;100456.81;;;9.96;100.00
4392;BME280;2210;51.938;8.488;2023-03-21T08:01:51;100470.97;;;10.00;100.00
4392;BME280;2210;51.938;8.488;2023-03-21T08:06:07;100466.28;;;10.01;100.00
4392;BME280;2210;51.938;8.488;2023-03-21T08:10:08;100466.22;;;9.89;100.00
4392;BME280;2210;51.938;8.488;2023-03-21T08:14:12;100468.25;;;9.82;100.00
4392;BME280;2210;51.938;8.488;2023-03-21T08:18:12;100465.97;;;9.78;100.00
4392;BME280;2210;51.938;8.488;2023-03-21T08:22:13;100470.03;;;9.76;100.00
4392;BME280;2210;51.938;8.488;2023-03-21T08:26:13;100469.97;;;9.64;100.00
4392;BME280;2210;51.938;8.488;2023-03-21T08:30:19;100472.56;;;9.59;100.00
4392;BME280;2210;51.938;8.488;2023-03-21T08:34:23;100465.75;;;9.50;100.00
4392;BME280;2210;51.938;8.488;2023-03-21T08:38:23;100467.88;;;9.48;100.00
4392;BME280;2210;51.938;8.488;2023-03-21T08:42:27;100470.31;;;9.56;100.00
4392;BME280;2210;51.938;8.488;2023-03-21T08:46:27;100464.19;;;9.54;100.00
4392;BME280;2210;51.938;8.488;2023-03-21T08:50:34;100477.50;;;9.57;100.00
4392;BME280;2210;51.938;8.488;2023-03-21T08:54:36;100474.13;;;9.55;100.00
4392;BME280;2210;51.938;8.488;2023-03-21T08:58:36;100466.25;;;9.58;100.00
4392;BME280;2210;51.938;8.488;2023-03-21T09:02:40;100474.81;;;9.50;100.00
4392;BME280;2210;51.938;8.488;2023-03-21T09:06:44;100474.13;;;9.55;100.00
4392;BME280;2210;51.938;8.488;2023-03-21T09:10:44;100467.88;;;9.48;100.00
4392;BME280;2210;51.938;8.488;2023-03-21T09:14:44;100463.72;;;9.57;100.00
4392;BME280;2210;51.938;8.488;2023-03-21T09:18:51;100459.91;;;9.58;100.00
4392;BME280;2210;51.938;8.488;2023-03-21T09:22:55;100458.97;;;9.64;100.00
4392;BME280;2210;51.938;8.488;2023-03-21T09:26:55;100466.97;;;9.66;100.00
4392;BME280;2210;51.938;8.488;2023-03-21T09:30:57;100472.97;;;9.62;100.00
4392;BME280;2210;51.938;8.488;2023-03-21T09:34:58;100471.44;;;9.67;100.00
4392;BME280;2210;51.938;8.488;2023-03-21T09:38:58;100464.75;;;9.74;100.00
4392;BME280;2210;51.938;8.488;2023-03-21T09:43:10;100466.66;;;9.74;100.00
4392;BME280;2210;51.938;8.488;2023-03-21T09:47:19;100463.06;;;9.73;100.00
4392;BME280;2210;51.938;8.488;2023-03-21T09:51:21;100459.75;;;9.83;100.00
4392;BME280;2210;51.938;8.488;2023-03-21T09:55:25;100457.09;;;9.76;100.00
4392;BME280;2210;51.938;8.488;2023-03-21T09:59:33;100455.19;;;9.77;100.00
4392;BME280;2210;51.938;8.488;2023-03-21T10:03:37;100456.41;;;9.81;100.00
4392;BME280;2210;51.938;8.488;2023-03-21T10:07:45;100457.63;;;9.85;100.00
4392;BME280;2210;51.938;8.488;2023-03-21T10:11:59;100456.41;;;9.81;100.00
4392;BME280;2210;51.938;8.488;2023-03-21T10:16:11;100452.34;;;9.84;100.00
4392;BME280;2210;51.938;8.488;2023-03-21T10:20:37;100440.25;;;9.85;100.00
4392;BME280;2210;51.938;8.488;2023-03-21T10:24:39;100445.63;;;9.79;100.00
4392;BME280;2210;51.938;8.488;2023-03-21T10:28:46;100436.06;;;9.82;100.00
4392;BME280;2210;51.938;8.488;2023-03-21T10:32:56;100440.28;;;9.96;100.00
4392;BME280;2210;51.938;8.488;2023-03-21T10:37:04;100430.72;;;9.99;100.00
4392;BME280;2210;51.938;8.488;2023-03-21T10:41:14;100437.19;;;9.93;100.00
4392;BME280;2210;51.938;8.488;2023-03-21T10:45:17;100427.13;;;10.10;100.00
4392;BME280;2210;51.938;8.488;2023-03-21T10:49:22;100425.13;;;10.18;100.00
4392;BME280;2210;51.938;8.488;2023-03-21T10:53:50;100426.69;;;10.13;100.00
4392;BME280;2210;51.938;8.488;2023-03-21T10:57:56;100423.19;;;10.18;100.00
4392;BME280;2210;51.938;8.488;2023-03-21T11:02:02;100420.56;;;10.23;100.00
4392;BME280;2210;51.938;8.488;2023-03-21T11:10:47;100431.22;;;10.20;100.00
4392;BME280;2210;51.938;8.488;2023-03-21T11:14:49;100422.72;;;10.21;100.00
4392;BME280;2210;51.938;8.488;2023-03-21T11:19:12;100421.41;;;10.24;100.00
4392;BME280;2210;51.938;8.488;2023-03-21T11:23:16;100412.44;;;10.28;100.00
4392;BME280;2210;51.938;8.488;2023-03-21T11:27:16;100415.19;;;10.28;100.00
4392;BME280;2210;51.938;8.488;2023-03-21T11:31:17;100408.81;;;10.28;100.00
4392;BME280;2210;51.938;8.488;2023-03-21T11:35:21;100410.03;;;10.32;100.00
4392;BME280;2210;51.938;8.488;2023-03-21T11:39:33;100406.34;;;10.38;100.00
4392;BME280;2210;51.938;8.488;2023-03-21T11:43:38;100399.53;;;10.41;100.00
4392;BME280;2210;51.938;8.488;2023-03-21T11:47:38;100387.56;;;10.35;100.00
4392;BME280;2210;51.938;8.488;2023-03-21T11:56:27;100372.66;;;10.24;100.00
4392;BME280;2210;51.938;8.488;2023-03-21T12:00:35;100373.63;;;10.30;100.00
4392;BME280;2210;51.938;8.488;2023-03-21T12:09:29;100356.13;;;10.36;100.00
4392;BME280;2210;51.938;8.488;2023-03-21T12:22:44;100344.13;;;10.30;100.00
4392;BME280;2210;51.938;8.488;2023-03-21T12:30:59;100339.09;;;10.51;100.00
4392;BME280;2210;51.938;8.488;2023-03-21T12:39:35;100325.13;;;10.53;100.00
4392;BME280;2210;51.938;8.488;2023-03-21T19:03:12;100163.25;;;10.65;100.00
4392;BME280;2210;51.938;8.488;2023-03-21T19:07:13;100156.91;;;10.65;100.00
4392;BME280;2210;51.938;8.488;2023-03-21T19:11:29;100162.09;;;10.61;100.00
4392;BME280;2210;51.938;8.488;2023-03-21T19:15:30;100153.22;;;10.59;100.00
4392;BME280;2210;51.938;8.488;2023-03-21T19:19:30;100141.94;;;10.60;100.00
4392;BME280;2210;51.938;8.488;2023-03-21T19:23:31;100148.03;;;10.62;100.00
4392;BME280;2210;51.938;8.488;2023-03-21T19:27:32;100139.44;;;10.59;100.00
4392;BME280;2210;51.938;8.488;2023-03-21T19:31:45;100130.91;;;10.60;100.00
4392;BME280;2210;51.938;8.488;2023-03-21T19:35:52;100127.31;;;10.60;100.00
4392;BME280;2210;51.938;8.488;2023-03-21T19:39:52;100144.38;;;10.57;100.00
4392;BME280;2210;51.938;8.488;2023-03-21T19:43:56;100131.66;;;10.56;100.00
4392;BME280;2210;51.938;8.488;2023-03-21T19:47:59;100134.81;;;10.48;100.00
4392;BME280;2210;51.938;8.488;2023-03-21T19:52:06;100129.69;;;10.39;100.00
4392;BME280;2210;51.938;8.488;2023-03-21T19:56:07;100134.09;;;10.40;100.00
4392;BME280;2210;51.938;8.488;2023-03-21T20:00:07;100130.06;;;10.31;100.00
4392;BME280;2210;51.938;8.488;2023-03-21T20:04:13;100134.84;;;10.24;100.00
4392;BME280;2210;51.938;8.488;2023-03-21T20:08:17;100125.91;;;10.17;100.00
4392;BME280;2210;51.938;8.488;2023-03-21T20:12:26;100119.47;;;10.11;100.00
4392;BME280;2210;51.938;8.488;2023-03-21T20:16:28;100135.63;;;10.07;100.00
4392;BME280;2210;51.938;8.488;2023-03-21T20:20:29;100131.19;;;10.06;100.00
4392;BME280;2210;51.938;8.488;2023-03-21T20:24:32;100132.78;;;10.02;100.00
4392;BME280;2210;51.938;8.488;2023-03-21T20:28:41;100126.78;;;10.05;100.00
4392;BME280;2210;51.938;8.488;2023-03-21T20:32:53;100121.28;;;10.05;100.00
4392;BME280;2210;51.938;8.488;2023-03-21T20:36:54;100128.22;;;10.08;100.00
4392;BME280;2210;51.938;8.488;2023-03-21T20:40:54;100131.94;;;10.02;100.00
4392;BME280;2210;51.938;8.488;2023-03-21T20:45:00;100135.44;;;9.97;100.00
4392;BME280;2210;51.938;8.488;2023-03-21T20:49:01;100139.16;;;9.91;100.00
4392;BME280;2210;51.938;8.488;2023-03-21T20:53:07;100128.38;;;9.89;100.00
4392;BME280;2210;51.938;8.488;2023-03-21T20:57:08;100133.75;;;9.96;100.00
4392;BME280;2210;51.938;8.488;2023-03-21T21:01:09;100123.00;;;9.94;100.00
4392;BME280;2210;51.938;8.488;2023-03-21T21:05:56;100118.91;;;9.97;100.00
4392;BME280;2210;51.938;8.488;2023-03-21T21:09:56;100109.09;;;10.01;100.00
4392;BME280;2210;51.938;8.488;2023-03-21T21:14:03;100105.59;;;10.06;100.00
4392;BME280;2210;51.938;8.488;2023-03-21T21:18:07;100107.75;;;10.04;100.00
4392;BME280;2210;51.938;8.488;2023-03-21T21:22:15;100107.50;;;10.05;100.00
4392;BME280;2210;51.938;8.488;2023-03-21T21:26:28;100098.41;;;10.05;100.00
4392;BME280;2210;51.938;8.488;2023-03-21T21:30:50;100095.31;;;10.01;100.00
4392;BME280;2210;51.938;8.488;2023-03-21T21:34:59;100087.53;;;9.98;100.00
4392;BME280;2210;51.938;8.488;2023-03-21T21:39:00;100084.75;;;9.98;100.00
4392;BME280;2210;51.938;8.488;2023-03-21T21:43:00;100078.78;;;10.01;100.00
4392;BME280;2210;51.938;8.488;2023-03-21T21:47:05;100089.81;;;10.01;100.00
4392;BME280;2210;51.938;8.488;2023-03-21T21:51:14;100091.47;;;10.02;100.00
4392;BME280;2210;51.938;8.488;2023-03-21T21:55:20;100086.81;;;10.03;100.00
4392;BME280;2210;51.938;8.488;2023-03-21T21:59:20;100086.56;;;10.04;100.00
4392;BME280;2210;51.938;8.488;2023-03-21T22:03:26;100080.44;;;10.02;100.00
4392;BME280;2210;51.938;8.488;2023-03-21T22:07:27;100091.47;;;10.02;100.00
4392;BME280;2210;51.938;8.488;2023-03-21T22:11:33;100082.59;;;10.12;100.00
4392;BME280;2210;51.938;8.488;2023-03-21T22:15:37;100080.22;;;10.04;100.00
4392;BME280;2210;51.938;8.488;2023-03-21T22:19:53;100081.19;;;9.98;100.00
4392;BME280;2210;51.938;8.488;2023-03-21T22:23:54;100077.00;;;9.95;100.00
4392;BME280;2210;51.938;8.488;2023-03-21T22:27:54;100072.56;;;9.94;100.00
4392;BME280;2210;51.938;8.488;2023-03-21T22:31:55;100062.41;;;9.94;100.00
4392;BME280;2210;51.938;8.488;2023-03-21T22:35:55;100065.16;;;9.94;100.00
4392;BME280;2210;51.938;8.488;2023-03-21T22:39:55;100070.41;;;9.96;100.00
4392;BME280;2210;51.938;8.488;2023-03-21T22:43:56;100077.81;;;9.95;100.00
4392;BME280;2210;51.938;8.488;2023-03-21T22:47:56;100069.50;;;9.90;100.00
4392;BME280;2210;51.938;8.488;2023-03-21T22:52:17;100072.69;;;9.87;100.00
4392;BME280;2210;51.938;8.488;2023-03-21T22:56:20;100066.25;;;9.82;100.00
4392;BME280;2210;51.938;8.488;2023-03-21T23:00:30;100067.94;;;9.83;100.00
4392;BME280;2210;51.938;8.488;2023-03-21T23:04:30;100060.88;;;9.87;100.00
4392;BME280;2210;51.938;8.488;2023-03-21T23:08:34;100065.19;;;9.83;100.00
4392;BME280;2210;51.938;8.488;2023-03-21T23:12:34;100053.56;;;9.81;100.00
4392;BME280;2210;51.938;8.488;2023-03-21T23:16:40;100062.94;;;9.79;100.00
4392;BME280;2210;51.938;8.488;2023-03-21T23:20:48;100047.88;;;9.70;100.00
4392;BME280;2210;51.938;8.488;2023-03-21T23:24:51;100037.69;;;9.71;100.00
4392;BME280;2210;51.938;8.488;2023-03-21T23:28:52;100039.50;;;9.65;100.00
4392;BME280;2210;51.938;8.488;2023-03-21T23:32:56;100041.50;;;9.70;100.00
4392;BME280;2210;51.938;8.488;2023-03-21T23:36:56;100039.00;;;9.68;100.00
4392;BME280;2210;51.938;8.488;2023-03-21T23:40:57;100040.69;;;9.69;100.00
4392;BME280;2210;51.938;8.488;2023-03-21T23:45:00;100038.53;;;9.71;100.00
4392;BME280;2210;51.938;8.488;2023-03-21T23:49:00;100024.78;;;9.71;100.00
4392;BME280;2210;51.938;8.488;2023-03-21T23:53:04;100024.84;;;9.76;100.00
4392;BME280;2210;51.938;8.488;2023-03-21T23:57:04;100024.38;;;9.79;100.00
